sensor_id;sensor_type;location;lat;lon;timestamp;pressure;altitude;pressure_sealevel;temperature;humidity
65758;BME280;52495;52.208;5.158;2022-10-12T00:00:51;102550.19;;;7.73;80.96
65758;BME280;52495;52.208;5.158;2022-10-12T00:03:18;102551.03;;;7.72;81.27
65758;BME280;52495;52.208;5.158;2022-10-12T00:05:46;102550.28;;;7.78;80.96
65758;BME280;52495;52.208;5.158;2022-10-12T00:08:12;102557.09;;;7.75;80.85
65758;BME280;52495;52.208;5.158;2022-10-12T00:10:39;102553.78;;;7.81;80.81
65758;BME280;52495;52.208;5.158;2022-10-12T00:13:05;102550.28;;;7.78;80.34
65758;BME280;52495;52.208;5.158;2022-10-12T00:15:36;102543.25;;;7.70;80.63
65758;BME280;52495;52.208;5.158;2022-10-12T00:18:02;102545.88;;;7.72;81.08
65758;BME280;52495;52.208;5.158;2022-10-12T00:20:29;102542.44;;;7.71;81.13
65758;BME280;52495;52.208;5.158;2022-10-12T00:22:56;102537.25;;;7.68;80.83
65758;BME280;52495;52.208;5.158;2022-10-12T00:25:22;102538.75;;;7.60;81.30
65758;BME280;52495;52.208;5.158;2022-10-12T00:27:49;102533.59;;;7.58;81.27
65758;BME280;52495;52.208;5.158;2022-10-12T00:30:15;102529.22;;;7.56;81.54
65758;BME280;52495;52.208;5.158;2022-10-12T00:32:43;102528.31;;;7.54;81.73
65758;BME280;52495;52.208;5.158;2022-10-12T00:35:10;102538.59;;;7.54;81.80
65758;BME280;52495;52.208;5.158;2022-10-12T00:37:36;102526.75;;;7.60;81.94
65758;BME280;52495;52.208;5.158;2022-10-12T00:40:03;102525.00;;;7.58;81.22
65758;BME280;52495;52.208;5.158;2022-10-12T00:42:30;102527.66;;;7.61;81.26
65758;BME280;52495;52.208;5.158;2022-10-12T00:44:57;102525.06;;;7.59;81.01
65758;BME280;52495;52.208;5.158;2022-10-12T00:47:25;102526.72;;;7.57;81.16
65758;BME280;52495;52.208;5.158;2022-10-12T00:49:56;102522.28;;;7.52;81.01
65758;BME280;52495;52.208;5.158;2022-10-12T00:52:26;102525.75;;;7.54;80.98
65758;BME280;52495;52.208;5.158;2022-10-12T00:54:53;102529.06;;;7.48;81.11
65758;BME280;52495;52.208;5.158;2022-10-12T00:57:20;102532.38;;;7.44;81.33
65758;BME280;52495;52.208;5.158;2022-10-12T00:59:48;102526.22;;;7.37;81.47
65758;BME280;52495;52.208;5.158;2022-10-12T01:02:16;102534.75;;;7.35;81.55
65758;BME280;52495;52.208;5.158;2022-10-12T01:04:43;102533.91;;;7.34;81.63
65758;BME280;52495;52.208;5.158;2022-10-12T01:07:11;102528.81;;;7.37;81.39
65758;BME280;52495;52.208;5.158;2022-10-12T01:09:38;102528.72;;;7.33;81.37
65758;BME280;52495;52.208;5.158;2022-10-12T01:12:05;102529.59;;;7.33;81.19
65758;BME280;52495;52.208;5.158;2022-10-12T01:14:32;102517.59;;;7.34;81.78
65758;BME280;52495;52.208;5.158;2022-10-12T01:17:00;102523.56;;;7.33;81.79
65758;BME280;52495;52.208;5.158;2022-10-12T01:19:36;102522.84;;;7.38;81.75
65758;BME280;52495;52.208;5.158;2022-10-12T01:22:09;102524.56;;;7.39;81.69
65758;BME280;52495;52.208;5.158;2022-10-12T01:24:40;102518.47;;;7.34;81.53
65758;BME280;52495;52.208;5.158;2022-10-12T01:27:17;102515.97;;;7.37;82.07
65758;BME280;52495;52.208;5.158;2022-10-12T01:35:24;102507.34;;;7.35;81.98
65758;BME280;52495;52.208;5.158;2022-10-12T01:37:55;102509.16;;;7.39;81.68
65758;BME280;52495;52.208;5.158;2022-10-12T01:40:25;102510.00;;;7.38;81.42
65758;BME280;52495;52.208;5.158;2022-10-12T01:42:54;102510.00;;;7.38;81.43
65758;BME280;52495;52.208;5.158;2022-10-12T01:45:22;102501.38;;;7.36;81.02
65758;BME280;52495;52.208;5.158;2022-10-12T01:47:49;102511.53;;;7.30;81.28
65758;BME280;52495;52.208;5.158;2022-10-12T01:50:18;102510.63;;;7.28;81.81
65758;BME280;52495;52.208;5.158;2022-10-12T01:52:50;102511.44;;;7.27;81.46
65758;BME280;52495;52.208;5.158;2022-10-12T01:55:27;102502.81;;;7.23;80.93
65758;BME280;52495;52.208;5.158;2022-10-12T01:57:58;102506.94;;;7.17;81.09
65758;BME280;52495;52.208;5.158;2022-10-12T02:00:34;102506.03;;;7.14;81.71
65758;BME280;52495;52.208;5.158;2022-10-12T02:03:07;102505.88;;;7.10;81.56
65758;BME280;52495;52.208;5.158;2022-10-12T02:05:36;102501.59;;;7.09;81.81
65758;BME280;52495;52.208;5.158;2022-10-12T02:08:07;102500.81;;;7.11;81.65
65758;BME280;52495;52.208;5.158;2022-10-12T02:10:37;102497.25;;;7.06;81.41
65758;BME280;52495;52.208;5.158;2022-10-12T02:13:06;102499.91;;;7.09;81.70
65758;BME280;52495;52.208;5.158;2022-10-12T02:15:35;102487.91;;;7.10;81.31
65758;BME280;52495;52.208;5.158;2022-10-12T02:18:02;102484.41;;;7.06;81.29
65758;BME280;52495;52.208;5.158;2022-10-12T02:20:29;102480.84;;;7.01;81.21
65758;BME280;52495;52.208;5.158;2022-10-12T02:22:56;102489.38;;;6.98;81.10
65758;BME280;52495;52.208;5.158;2022-10-12T02:25:25;102485.03;;;6.96;81.22
65758;BME280;52495;52.208;5.158;2022-10-12T02:27:53;102487.59;;;6.96;81.23
65758;BME280;52495;52.208;5.158;2022-10-12T02:30:21;102476.38;;;6.92;80.79
65758;BME280;52495;52.208;5.158;2022-10-12T02:32:49;102469.53;;;6.91;80.79
65758;BME280;52495;52.208;5.158;2022-10-12T02:35:19;102472.88;;;6.89;80.73
65758;BME280;52495;52.208;5.158;2022-10-12T02:37:48;102467.66;;;6.86;80.74
65758;BME280;52495;52.208;5.158;2022-10-12T02:40:17;102462.38;;;6.79;80.94
65758;BME280;52495;52.208;5.158;2022-10-12T02:42:47;102464.94;;;6.79;81.31
65758;BME280;52495;52.208;5.158;2022-10-12T02:45:15;102460.63;;;6.78;81.64
65758;BME280;52495;52.208;5.158;2022-10-12T02:47:43;102463.97;;;6.76;81.14
65758;BME280;52495;52.208;5.158;2022-10-12T02:50:10;102457.97;;;6.74;80.98
65758;BME280;52495;52.208;5.158;2022-10-12T02:52:37;102457.09;;;6.75;81.54
65758;BME280;52495;52.208;5.158;2022-10-12T02:55:04;102454.50;;;6.72;81.82
65758;BME280;52495;52.208;5.158;2022-10-12T02:57:31;102456.16;;;6.71;81.35
65758;BME280;52495;52.208;5.158;2022-10-12T02:59:59;102453.59;;;6.71;81.44
65758;BME280;52495;52.208;5.158;2022-10-12T03:02:25;102456.91;;;6.67;81.90
65758;BME280;52495;52.208;5.158;2022-10-12T03:04:52;102467.97;;;6.64;82.01
65758;BME280;52495;52.208;5.158;2022-10-12T03:07:19;102456.88;;;6.64;81.64
65758;BME280;52495;52.208;5.158;2022-10-12T03:09:45;102456.03;;;6.65;82.13
65758;BME280;52495;52.208;5.158;2022-10-12T03:12:12;102456.78;;;6.61;81.74
65758;BME280;52495;52.208;5.158;2022-10-12T03:14:38;102457.59;;;6.60;82.07
65758;BME280;52495;52.208;5.158;2022-10-12T03:17:06;102450.00;;;6.63;81.79
65758;BME280;52495;52.208;5.158;2022-10-12T03:19:33;102454.25;;;6.62;81.80
65758;BME280;52495;52.208;5.158;2022-10-12T03:21:59;102454.22;;;6.61;82.25
65758;BME280;52495;52.208;5.158;2022-10-12T03:24:26;102455.97;;;6.63;81.93
65758;BME280;52495;52.208;5.158;2022-10-12T03:26:52;102443.94;;;6.61;82.32
65758;BME280;52495;52.208;5.158;2022-10-12T03:29:19;102450.84;;;6.63;82.60
65758;BME280;52495;52.208;5.158;2022-10-12T03:31:45;102449.16;;;6.64;82.11
65758;BME280;52495;52.208;5.158;2022-10-12T03:34:13;102438.91;;;6.64;82.27
65758;BME280;52495;52.208;5.158;2022-10-12T03:36:40;102444.94;;;6.66;82.20
65758;BME280;52495;52.208;5.158;2022-10-12T03:39:06;102450.91;;;6.65;81.85
65758;BME280;52495;52.208;5.158;2022-10-12T03:41:33;102437.19;;;6.64;82.08
65758;BME280;52495;52.208;5.158;2022-10-12T03:44:00;102434.69;;;6.67;81.80
65758;BME280;52495;52.208;5.158;2022-10-12T03:46:26;102438.09;;;6.66;82.07
65758;BME280;52495;52.208;5.158;2022-10-12T03:48:53;102441.47;;;6.64;82.06
65758;BME280;52495;52.208;5.158;2022-10-12T03:51:20;102440.56;;;6.62;81.56
65758;BME280;52495;52.208;5.158;2022-10-12T03:53:47;102442.09;;;6.55;81.89
65758;BME280;52495;52.208;5.158;2022-10-12T03:56:14;102443.75;;;6.53;81.63
65758;BME280;52495;52.208;5.158;2022-10-12T03:58:40;102440.38;;;6.54;81.63
65758;BME280;52495;52.208;5.158;2022-10-12T04:01:06;102439.34;;;6.47;81.41
65758;BME280;52495;52.208;5.158;2022-10-12T04:03:33;102437.53;;;6.45;82.27
65758;BME280;52495;52.208;5.158;2022-10-12T04:06:00;102434.94;;;6.43;81.87
65758;BME280;52495;52.208;5.158;2022-10-12T04:08:28;102429.66;;;6.37;81.95
65758;BME280;52495;52.208;5.158;2022-10-12T04:10:55;102433.03;;;6.36;82.15
65758;BME280;52495;52.208;5.158;2022-10-12T04:13:21;102439.81;;;6.34;82.17
65758;BME280;52495;52.208;5.158;2022-10-12T04:15:48;102438.06;;;6.31;81.07
65758;BME280;52495;52.208;5.158;2022-10-12T04:18:14;102444.91;;;6.31;81.00
65758;BME280;52495;52.208;5.158;2022-10-12T04:20:41;102439.69;;;6.28;81.53
65758;BME280;52495;52.208;5.158;2022-10-12T04:23:07;102447.28;;;6.25;81.19
65758;BME280;52495;52.208;5.158;2022-10-12T04:25:36;102443.78;;;6.21;81.35
65758;BME280;52495;52.208;5.158;2022-10-12T04:28:02;102443.69;;;6.18;81.47
65758;BME280;52495;52.208;5.158;2022-10-12T04:30:29;102446.97;;;6.12;81.41
65758;BME280;52495;52.208;5.158;2022-10-12T04:32:57;102443.41;;;6.07;81.13
65758;BME280;52495;52.208;5.158;2022-10-12T04:35:23;102448.41;;;6.02;81.50
65758;BME280;52495;52.208;5.158;2022-10-12T04:37:50;102445.84;;;6.02;81.59
65758;BME280;52495;52.208;5.158;2022-10-12T04:40:16;102448.44;;;6.04;81.51
65758;BME280;52495;52.208;5.158;2022-10-12T04:42:44;102437.13;;;5.97;81.18
65758;BME280;52495;52.208;5.158;2022-10-12T04:45:11;102435.44;;;5.98;82.11
65758;BME280;52495;52.208;5.158;2022-10-12T04:47:37;102437.91;;;5.95;81.79
65758;BME280;52495;52.208;5.158;2022-10-12T04:50:04;102437.84;;;5.93;82.12
65758;BME280;52495;52.208;5.158;2022-10-12T04:52:31;102436.94;;;5.91;81.55
65758;BME280;52495;52.208;5.158;2022-10-12T04:54:57;102434.44;;;5.92;82.18
65758;BME280;52495;52.208;5.158;2022-10-12T04:57:24;102430.06;;;5.90;81.12
65758;BME280;52495;52.208;5.158;2022-10-12T04:59:52;102432.56;;;5.87;81.49
65758;BME280;52495;52.208;5.158;2022-10-12T05:02:18;102431.78;;;5.89;82.24
65758;BME280;52495;52.208;5.158;2022-10-12T05:04:45;102429.94;;;5.85;81.89
65758;BME280;52495;52.208;5.158;2022-10-12T05:07:11;102429.09;;;5.85;82.02
65758;BME280;52495;52.208;5.158;2022-10-12T05:09:38;102423.13;;;5.86;81.29
65758;BME280;52495;52.208;5.158;2022-10-12T05:12:05;102426.44;;;5.82;81.54
65758;BME280;52495;52.208;5.158;2022-10-12T05:14:31;102429.09;;;5.85;82.12
65758;BME280;52495;52.208;5.158;2022-10-12T05:16:59;102421.34;;;5.83;81.64
65758;BME280;52495;52.208;5.158;2022-10-12T05:19:26;102421.34;;;5.83;81.86
65758;BME280;52495;52.208;5.158;2022-10-12T05:21:52;102430.56;;;5.76;81.51
65758;BME280;52495;52.208;5.158;2022-10-12T05:24:18;102418.63;;;5.77;81.70
65758;BME280;52495;52.208;5.158;2022-10-12T05:26:45;102421.91;;;5.73;82.02
65758;BME280;52495;52.208;5.158;2022-10-12T05:29:11;102414.13;;;5.70;81.92
65758;BME280;52495;52.208;5.158;2022-10-12T05:31:38;102420.16;;;5.70;81.96
65758;BME280;52495;52.208;5.158;2022-10-12T05:34:06;102417.50;;;5.67;81.78
65758;BME280;52495;52.208;5.158;2022-10-12T05:36:33;102422.56;;;5.66;82.24
65758;BME280;52495;52.208;5.158;2022-10-12T05:38:59;102416.59;;;5.67;81.98
65758;BME280;52495;52.208;5.158;2022-10-12T05:41:26;102420.81;;;5.65;82.51
65758;BME280;52495;52.208;5.158;2022-10-12T05:43:52;102417.50;;;5.67;81.64
65758;BME280;52495;52.208;5.158;2022-10-12T05:46:19;102420.91;;;5.68;82.07
65758;BME280;52495;52.208;5.158;2022-10-12T05:48:45;102416.59;;;5.67;81.52
65758;BME280;52495;52.208;5.158;2022-10-12T05:51:13;102418.25;;;5.65;81.95
65758;BME280;52495;52.208;5.158;2022-10-12T05:53:40;102414.81;;;5.62;82.24
65758;BME280;52495;52.208;5.158;2022-10-12T05:56:06;102414.00;;;5.65;81.67
65758;BME280;52495;52.208;5.158;2022-10-12T05:58:33;102402.88;;;5.65;81.97
65758;BME280;52495;52.208;5.158;2022-10-12T06:01:03;102409.63;;;5.61;82.38
65758;BME280;52495;52.208;5.158;2022-10-12T06:03:30;102407.94;;;5.61;81.87
65758;BME280;52495;52.208;5.158;2022-10-12T06:05:56;102412.25;;;5.62;82.07
65758;BME280;52495;52.208;5.158;2022-10-12T06:08:24;102413.19;;;5.66;82.21
65758;BME280;52495;52.208;5.158;2022-10-12T06:10:51;102408.00;;;5.65;81.68
65758;BME280;52495;52.208;5.158;2022-10-12T06:13:18;102415.78;;;5.68;82.39
65758;BME280;52495;52.208;5.158;2022-10-12T06:15:44;102407.25;;;5.67;82.22
65758;BME280;52495;52.208;5.158;2022-10-12T06:18:11;102409.00;;;5.70;81.74
65758;BME280;52495;52.208;5.158;2022-10-12T06:20:38;102408.19;;;5.71;82.60
65758;BME280;52495;52.208;5.158;2022-10-12T06:23:04;102410.03;;;5.76;82.73
65758;BME280;52495;52.208;5.158;2022-10-12T06:25:33;102411.75;;;5.76;82.86
65758;BME280;52495;52.208;5.158;2022-10-12T06:27:59;102413.53;;;5.78;81.73
65758;BME280;52495;52.208;5.158;2022-10-12T06:30:26;102415.38;;;5.84;82.27
65758;BME280;52495;52.208;5.158;2022-10-12T06:32:52;102412.78;;;5.83;82.23
65758;BME280;52495;52.208;5.158;2022-10-12T06:35:19;102408.63;;;5.86;82.16
65758;BME280;52495;52.208;5.158;2022-10-12T06:37:49;102410.41;;;5.89;82.26
65758;BME280;52495;52.208;5.158;2022-10-12T06:40:16;102416.41;;;5.89;82.57
65758;BME280;52495;52.208;5.158;2022-10-12T06:42:44;102420.69;;;5.90;82.63
65758;BME280;52495;52.208;5.158;2022-10-12T06:45:10;102418.31;;;5.97;82.01
65758;BME280;52495;52.208;5.158;2022-10-12T06:47:37;102422.78;;;6.02;82.75
65758;BME280;52495;52.208;5.158;2022-10-12T06:50:04;102413.34;;;6.01;82.43
65758;BME280;52495;52.208;5.158;2022-10-12T06:52:31;102413.44;;;6.06;82.27
65758;BME280;52495;52.208;5.158;2022-10-12T06:54:57;102409.25;;;6.08;82.42
65758;BME280;52495;52.208;5.158;2022-10-12T06:57:24;102407.69;;;6.15;82.98
65758;BME280;52495;52.208;5.158;2022-10-12T06:59:52;102413.84;;;6.21;83.27
65758;BME280;52495;52.208;5.158;2022-10-12T07:02:18;102405.47;;;6.27;83.43
65758;BME280;52495;52.208;5.158;2022-10-12T07:04:47;102401.28;;;6.31;83.49
65758;BME280;52495;52.208;5.158;2022-10-12T07:07:14;102393.72;;;6.35;84.51
65758;BME280;52495;52.208;5.158;2022-10-12T07:09:41;102392.16;;;6.42;84.59
65758;BME280;52495;52.208;5.158;2022-10-12T07:12:07;102388.06;;;6.50;83.93
65758;BME280;52495;52.208;5.158;2022-10-12T07:14:34;102388.22;;;6.55;84.26
65758;BME280;52495;52.208;5.158;2022-10-12T07:17:02;102379.78;;;6.61;84.19
65758;BME280;52495;52.208;5.158;2022-10-12T07:19:28;102380.81;;;6.67;84.23
65758;BME280;52495;52.208;5.158;2022-10-12T07:21:55;102381.81;;;6.74;84.73
65758;BME280;52495;52.208;5.158;2022-10-12T07:24:21;102385.38;;;6.81;84.03
65758;BME280;52495;52.208;5.158;2022-10-12T07:26:48;102384.72;;;6.88;84.33
65758;BME280;52495;52.208;5.158;2022-10-12T07:29:14;102383.16;;;6.96;84.16
65758;BME280;52495;52.208;5.158;2022-10-12T07:31:41;102390.19;;;7.04;84.58
65758;BME280;52495;52.208;5.158;2022-10-12T07:34:09;102392.84;;;7.07;83.87
65758;BME280;52495;52.208;5.158;2022-10-12T07:36:35;102392.13;;;7.14;84.47
65758;BME280;52495;52.208;5.158;2022-10-12T07:39:04;102393.13;;;7.21;84.41
65758;BME280;52495;52.208;5.158;2022-10-12T07:41:30;102393.34;;;7.30;84.74
65758;BME280;52495;52.208;5.158;2022-10-12T07:43:58;102391.78;;;7.38;84.64
65758;BME280;52495;52.208;5.158;2022-10-12T07:46:25;102395.34;;;7.45;84.98
65758;BME280;52495;52.208;5.158;2022-10-12T07:48:51;102398.06;;;7.51;84.68
65758;BME280;52495;52.208;5.158;2022-10-12T07:51:19;102392.16;;;7.57;85.11
65758;BME280;52495;52.208;5.158;2022-10-12T07:53:46;102397.38;;;7.60;85.02
65758;BME280;52495;52.208;5.158;2022-10-12T07:56:12;102397.50;;;7.66;85.19
65758;BME280;52495;52.208;5.158;2022-10-12T07:58:40;102404.44;;;7.70;85.58
65758;BME280;52495;52.208;5.158;2022-10-12T08:01:07;102398.56;;;7.76;85.78
65758;BME280;52495;52.208;5.158;2022-10-12T08:03:34;102399.50;;;7.81;85.78
65758;BME280;52495;52.208;5.158;2022-10-12T08:06:06;102401.31;;;7.85;85.87
65758;BME280;52495;52.208;5.158;2022-10-12T08:08:34;102402.28;;;7.92;85.98
65758;BME280;52495;52.208;5.158;2022-10-12T08:11:00;102406.72;;;7.99;86.19
65758;BME280;52495;52.208;5.158;2022-10-12T08:13:27;102412.00;;;8.07;86.33
65758;BME280;52495;52.208;5.158;2022-10-12T08:15:53;102406.16;;;8.16;86.42
65758;BME280;52495;52.208;5.158;2022-10-12T08:18:20;102410.69;;;8.28;86.94
65758;BME280;52495;52.208;5.158;2022-10-12T08:20:46;102406.56;;;8.39;87.67
65758;BME280;52495;52.208;5.158;2022-10-12T08:23:13;102405.97;;;8.53;87.65
65758;BME280;52495;52.208;5.158;2022-10-12T08:25:41;102415.63;;;8.66;87.53
65758;BME280;52495;52.208;5.158;2022-10-12T08:28:16;102403.81;;;8.77;88.58
65758;BME280;52495;52.208;5.158;2022-10-12T08:30:42;102405.72;;;8.91;88.58
65758;BME280;52495;52.208;5.158;2022-10-12T08:33:09;102405.00;;;9.01;87.78
65758;BME280;52495;52.208;5.158;2022-10-12T08:35:36;102406.88;;;9.13;87.31
65758;BME280;52495;52.208;5.158;2022-10-12T08:38:03;102401.88;;;9.24;87.35
65758;BME280;52495;52.208;5.158;2022-10-12T08:40:30;102393.41;;;9.34;86.28
65758;BME280;52495;52.208;5.158;2022-10-12T08:43:01;102394.44;;;9.46;86.85
65758;BME280;52495;52.208;5.158;2022-10-12T08:45:33;102395.44;;;9.59;85.75
65758;BME280;52495;52.208;5.158;2022-10-12T08:48:04;102399.03;;;9.70;85.62
65758;BME280;52495;52.208;5.158;2022-10-12T08:50:34;102393.13;;;9.80;84.29
65758;BME280;52495;52.208;5.158;2022-10-12T08:53:05;102389.81;;;9.92;83.98
65758;BME280;52495;52.208;5.158;2022-10-12T08:55:35;102394.19;;;10.02;82.61
65758;BME280;52495;52.208;5.158;2022-10-12T08:58:07;102396.88;;;10.12;81.09
65758;BME280;52495;52.208;5.158;2022-10-12T09:00:37;102398.69;;;10.22;80.83
65758;BME280;52495;52.208;5.158;2022-10-12T09:03:06;102401.38;;;10.33;80.84
65758;BME280;52495;52.208;5.158;2022-10-12T09:05:36;102397.19;;;10.44;79.65
65758;BME280;52495;52.208;5.158;2022-10-12T09:08:06;102399.03;;;10.55;79.08
65758;BME280;52495;52.208;5.158;2022-10-12T09:10:38;102399.97;;;10.65;78.61
65758;BME280;52495;52.208;5.158;2022-10-12T09:13:12;102389.72;;;10.75;78.52
65758;BME280;52495;52.208;5.158;2022-10-12T09:15:44;102386.31;;;10.86;77.74
65758;BME280;52495;52.208;5.158;2022-10-12T09:18:13;102387.25;;;10.97;78.09
65758;BME280;52495;52.208;5.158;2022-10-12T09:20:44;102372.69;;;11.10;78.38
65758;BME280;52495;52.208;5.158;2022-10-12T09:23:16;102377.91;;;11.21;77.94
65758;BME280;52495;52.208;5.158;2022-10-12T09:25:45;102374.50;;;11.31;76.23
65758;BME280;52495;52.208;5.158;2022-10-12T09:28:14;102378.88;;;11.42;76.87
65758;BME280;52495;52.208;5.158;2022-10-12T09:30:44;102380.63;;;11.50;75.50
65758;BME280;52495;52.208;5.158;2022-10-12T09:33:16;102381.53;;;11.60;75.31
65758;BME280;52495;52.208;5.158;2022-10-12T09:35:48;102391.91;;;11.69;74.70
65758;BME280;52495;52.208;5.158;2022-10-12T09:38:16;102385.03;;;11.82;76.13
65758;BME280;52495;52.208;5.158;2022-10-12T09:40:43;102385.03;;;11.89;74.28
65758;BME280;52495;52.208;5.158;2022-10-12T09:43:10;102394.56;;;11.94;72.73
65758;BME280;52495;52.208;5.158;2022-10-12T09:45:38;102394.59;;;12.04;72.93
65758;BME280;52495;52.208;5.158;2022-10-12T09:48:18;102379.09;;;12.11;73.60
65758;BME280;52495;52.208;5.158;2022-10-12T09:50:47;102367.00;;;12.21;73.39
65758;BME280;52495;52.208;5.158;2022-10-12T09:53:19;102360.09;;;12.31;72.93
65758;BME280;52495;52.208;5.158;2022-10-12T09:55:51;102364.44;;;12.35;70.93
65758;BME280;52495;52.208;5.158;2022-10-12T09:58:19;102363.56;;;12.36;70.29
65758;BME280;52495;52.208;5.158;2022-10-12T10:00:47;102349.75;;;12.37;69.61
65758;BME280;52495;52.208;5.158;2022-10-12T10:03:33;102350.63;;;12.44;70.33
65758;BME280;52495;52.208;5.158;2022-10-12T10:06:01;102348.00;;;12.50;69.48
65758;BME280;52495;52.208;5.158;2022-10-12T10:08:28;102345.41;;;12.56;69.10
65758;BME280;52495;52.208;5.158;2022-10-12T10:10:55;102347.16;;;12.64;69.77
65758;BME280;52495;52.208;5.158;2022-10-12T10:13:22;102347.13;;;12.65;68.80
65758;BME280;52495;52.208;5.158;2022-10-12T10:16:03;102344.53;;;12.68;67.72
65758;BME280;52495;52.208;5.158;2022-10-12T10:18:32;102353.16;;;12.73;67.16
65758;BME280;52495;52.208;5.158;2022-10-12T10:20:59;102343.66;;;12.79;66.80
65758;BME280;52495;52.208;5.158;2022-10-12T10:23:27;102359.19;;;12.86;67.37
65758;BME280;52495;52.208;5.158;2022-10-12T10:25:55;102350.53;;;12.94;67.62
65758;BME280;52495;52.208;5.158;2022-10-12T10:28:22;102350.50;;;13.00;67.05
65758;BME280;52495;52.208;5.158;2022-10-12T10:31:00;102354.81;;;13.05;66.58
65758;BME280;52495;52.208;5.158;2022-10-12T10:33:27;102345.31;;;13.04;66.31
65758;BME280;52495;52.208;5.158;2022-10-12T10:35:56;102339.19;;;13.19;66.76
65758;BME280;52495;52.208;5.158;2022-10-12T10:38:23;102337.44;;;13.26;67.39
65758;BME280;52495;52.208;5.158;2022-10-12T10:40:51;102328.78;;;13.33;67.10
65758;BME280;52495;52.208;5.158;2022-10-12T10:43:19;102322.69;;;13.42;65.58
65758;BME280;52495;52.208;5.158;2022-10-12T10:45:47;102325.25;;;13.50;66.51
65758;BME280;52495;52.208;5.158;2022-10-12T10:48:17;102321.78;;;13.57;65.91
65758;BME280;52495;52.208;5.158;2022-10-12T10:50:48;102315.66;;;13.64;65.86
65758;BME280;52495;52.208;5.158;2022-10-12T10:53:17;102315.59;;;13.74;64.64
65758;BME280;52495;52.208;5.158;2022-10-12T10:55:45;102300.88;;;13.77;63.06
65758;BME280;52495;52.208;5.158;2022-10-12T10:58:17;102299.06;;;13.86;62.95
65758;BME280;52495;52.208;5.158;2022-10-12T11:00:45;102289.47;;;13.92;63.06
65758;BME280;52495;52.208;5.158;2022-10-12T11:03:15;102274.72;;;14.01;63.11
65758;BME280;52495;52.208;5.158;2022-10-12T11:05:48;102273.72;;;14.14;63.35
65758;BME280;52495;52.208;5.158;2022-10-12T11:08:18;102262.38;;;14.23;62.39
65758;BME280;52495;52.208;5.158;2022-10-12T11:10:46;102259.75;;;14.27;61.56
65758;BME280;52495;52.208;5.158;2022-10-12T11:13:15;102245.81;;;14.35;60.48
65758;BME280;52495;52.208;5.158;2022-10-12T11:15:45;102242.31;;;14.42;60.30
65758;BME280;52495;52.208;5.158;2022-10-12T11:18:15;102239.56;;;14.53;61.06
65758;BME280;52495;52.208;5.158;2022-10-12T11:20:45;102237.78;;;14.60;60.34
65758;BME280;52495;52.208;5.158;2022-10-12T11:23:17;102235.97;;;14.68;59.29
65758;BME280;52495;52.208;5.158;2022-10-12T11:25:49;102232.44;;;14.72;58.79
65758;BME280;52495;52.208;5.158;2022-10-12T11:28:18;102228.91;;;14.78;58.09
65758;BME280;52495;52.208;5.158;2022-10-12T11:30:46;102226.28;;;14.81;55.80
65758;BME280;52495;52.208;5.158;2022-10-12T11:33:17;102226.09;;;14.93;58.00
65758;BME280;52495;52.208;5.158;2022-10-12T11:35:46;102225.09;;;15.03;56.84
65758;BME280;52495;52.208;5.158;2022-10-12T11:38:14;102222.41;;;15.10;55.27
65758;BME280;52495;52.208;5.158;2022-10-12T11:40:44;102224.94;;;15.14;56.57
65758;BME280;52495;52.208;5.158;2022-10-12T11:43:12;102221.56;;;15.09;56.05
65758;BME280;52495;52.208;5.158;2022-10-12T11:45:42;102219.84;;;15.08;56.15
65758;BME280;52495;52.208;5.158;2022-10-12T11:48:12;102217.25;;;15.08;56.55
65758;BME280;52495;52.208;5.158;2022-10-12T11:50:41;102219.84;;;15.07;55.77
65758;BME280;52495;52.208;5.158;2022-10-12T11:53:12;102219.88;;;15.05;55.72
65758;BME280;52495;52.208;5.158;2022-10-12T11:55:52;102216.41;;;15.05;55.13
65758;BME280;52495;52.208;5.158;2022-10-12T11:58:23;102223.34;;;15.06;55.74
65758;BME280;52495;52.208;5.158;2022-10-12T12:01:02;102226.78;;;15.08;56.22
65758;BME280;52495;52.208;5.158;2022-10-12T12:03:32;102220.69;;;15.10;56.45
65758;BME280;52495;52.208;5.158;2022-10-12T12:08:55;102227.59;;;15.13;56.82
65758;BME280;52495;52.208;5.158;2022-10-12T12:11:24;102217.19;;;15.13;57.65
65758;BME280;52495;52.208;5.158;2022-10-12T12:13:53;102204.22;;;15.11;57.89
65758;BME280;52495;52.208;5.158;2022-10-12T12:16:41;102205.03;;;15.13;57.87
65758;BME280;52495;52.208;5.158;2022-10-12T12:19:08;102214.53;;;15.16;56.91
65758;BME280;52495;52.208;5.158;2022-10-12T12:24:17;102203.94;;;15.28;57.73
65758;BME280;52495;52.208;5.158;2022-10-12T12:26:46;102195.09;;;15.39;57.70
65758;BME280;52495;52.208;5.158;2022-10-12T12:29:14;102187.25;;;15.43;55.56
65758;BME280;52495;52.208;5.158;2022-10-12T12:31:42;102184.53;;;15.50;56.78
65758;BME280;52495;52.208;5.158;2022-10-12T12:34:11;102182.75;;;15.53;56.61
65758;BME280;52495;52.208;5.158;2022-10-12T12:36:39;102173.97;;;15.57;56.89
65758;BME280;52495;52.208;5.158;2022-10-12T12:39:21;102186.88;;;15.67;57.57
65758;BME280;52495;52.208;5.158;2022-10-12T12:41:51;102176.19;;;15.82;56.66
65758;BME280;52495;52.208;5.158;2022-10-12T12:44:36;102175.25;;;15.88;56.36
65758;BME280;52495;52.208;5.158;2022-10-12T12:47:15;102173.47;;;15.90;56.43
65758;BME280;52495;52.208;5.158;2022-10-12T12:49:43;102179.53;;;15.90;56.82
65758;BME280;52495;52.208;5.158;2022-10-12T12:52:12;102177.75;;;15.92;56.02
65758;BME280;52495;52.208;5.158;2022-10-12T12:54:40;102183.06;;;15.85;56.39
65758;BME280;52495;52.208;5.158;2022-10-12T12:57:15;102190.09;;;15.81;55.70
65758;BME280;52495;52.208;5.158;2022-10-12T13:00:03;102184.97;;;15.76;55.69
65758;BME280;52495;52.208;5.158;2022-10-12T13:02:37;102193.84;;;15.65;56.16
65758;BME280;52495;52.208;5.158;2022-10-12T13:05:20;102188.75;;;15.57;56.47
65758;BME280;52495;52.208;5.158;2022-10-12T13:07:57;102184.44;;;15.56;57.11
65758;BME280;52495;52.208;5.158;2022-10-12T13:10:31;102181.91;;;15.50;57.49
65758;BME280;52495;52.208;5.158;2022-10-12T13:13:10;102179.41;;;15.45;58.07
65758;BME280;52495;52.208;5.158;2022-10-12T13:15:44;102175.13;;;15.41;58.37